Czar, Canada
Current Conditions -  °F | °C
As of 12:00 PM on Tuesday 21 Oct 2014 (Local Time) from CYLL Reporting Station
Broken Clouds Broken Clouds  
Wind Chill: 55°   Ceiling: 25000
Heat Index: 55°   Visibility: 15mi
Dew Point: 41°   Wind: 14mph
Humidity: 58%   Direction: 320°NW
Pressure: 29.58"   Gusts: 20mph
Location:  52.45°N, 110.83°W
Report Text: CYLL 211800Z 32012G17KT 15SM BKN250 13/05 A2958 RMK CI6 SLP028 DENSITY ALT 2800FT
Loading
Personal Weather Stations






























Interactive Weather Map
Tropical Storm Tracking
New forecast layout! Learn more

10-Day Weather Forecast

Advertisements
Track Severe Weather on mobile